sensor_id;sensor_type;location;lat;lon;timestamp;temperature;humidity
7254;DHT22;4060;49.186;9.226;2023-05-10T00:02:07;21.20;64.90
7254;DHT22;4060;49.186;9.226;2023-05-10T00:04:39;21.20;65.00
7254;DHT22;4060;49.186;9.226;2023-05-10T00:07:09;21.10;64.90
7254;DHT22;4060;49.186;9.226;2023-05-10T00:09:39;21.20;65.10
7254;DHT22;4060;49.186;9.226;2023-05-10T00:12:08;21.10;65.00
7254;DHT22;4060;49.186;9.226;2023-05-10T00:14:37;21.10;65.00
7254;DHT22;4060;49.186;9.226;2023-05-10T00:17:07;21.10;65.00
7254;DHT22;4060;49.186;9.226;2023-05-10T00:19:38;21.10;65.10
7254;DHT22;4060;49.186;9.226;2023-05-10T00:22:07;21.00;65.00
7254;DHT22;4060;49.186;9.226;2023-05-10T00:24:37;21.00;65.00
7254;DHT22;4060;49.186;9.226;2023-05-10T00:27:07;21.00;65.00
7254;DHT22;4060;49.186;9.226;2023-05-10T00:29:37;21.00;65.10
7254;DHT22;4060;49.186;9.226;2023-05-10T00:32:07;21.00;65.10
7254;DHT22;4060;49.186;9.226;2023-05-10T00:34:38;21.00;65.10
7254;DHT22;4060;49.186;9.226;2023-05-10T00:37:08;21.00;65.20
7254;DHT22;4060;49.186;9.226;2023-05-10T00:39:37;20.90;65.10
7254;DHT22;4060;49.186;9.226;2023-05-10T00:42:07;20.90;65.10
7254;DHT22;4060;49.186;9.226;2023-05-10T00:44:36;20.90;65.20
7254;DHT22;4060;49.186;9.226;2023-05-10T00:47:06;20.90;65.30
7254;DHT22;4060;49.186;9.226;2023-05-10T00:49:38;20.80;65.20
7254;DHT22;4060;49.186;9.226;2023-05-10T00:52:08;20.80;65.20
7254;DHT22;4060;49.186;9.226;2023-05-10T00:54:39;20.80;65.30
7254;DHT22;4060;49.186;9.226;2023-05-10T00:57:08;20.80;65.40
7254;DHT22;4060;49.186;9.226;2023-05-10T00:59:38;20.80;65.50
7254;DHT22;4060;49.186;9.226;2023-05-10T01:02:07;20.80;65.40
7254;DHT22;4060;49.186;9.226;2023-05-10T01:04:39;20.70;65.30
7254;DHT22;4060;49.186;9.226;2023-05-10T01:07:09;20.70;65.40
7254;DHT22;4060;49.186;9.226;2023-05-10T01:09:38;20.70;65.40
7254;DHT22;4060;49.186;9.226;2023-05-10T01:12:09;20.70;65.40
7254;DHT22;4060;49.186;9.226;2023-05-10T01:14:38;20.70;65.50
7254;DHT22;4060;49.186;9.226;2023-05-10T01:17:08;20.70;65.50
7254;DHT22;4060;49.186;9.226;2023-05-10T01:19:40;20.60;65.30
7254;DHT22;4060;49.186;9.226;2023-05-10T01:22:25;20.70;65.50
7254;DHT22;4060;49.186;9.226;2023-05-10T01:25:25;20.60;65.60
7254;DHT22;4060;49.186;9.226;2023-05-10T01:28:26;20.60;65.60
7254;DHT22;4060;49.186;9.226;2023-05-10T01:31:22;20.60;65.60
7254;DHT22;4060;49.186;9.226;2023-05-10T01:34:00;20.50;65.50
7254;DHT22;4060;49.186;9.226;2023-05-10T01:36:32;20.50;65.50
7254;DHT22;4060;49.186;9.226;2023-05-10T01:39:06;20.50;65.60
7254;DHT22;4060;49.186;9.226;2023-05-10T01:41:48;20.50;65.60
7254;DHT22;4060;49.186;9.226;2023-05-10T01:44:26;20.50;65.70
7254;DHT22;4060;49.186;9.226;2023-05-10T01:47:04;20.50;65.80
7254;DHT22;4060;49.186;9.226;2023-05-10T01:49:41;20.50;65.70
7254;DHT22;4060;49.186;9.226;2023-05-10T01:52:12;20.40;65.60
7254;DHT22;4060;49.186;9.226;2023-05-10T01:54:51;20.40;65.60
7254;DHT22;4060;49.186;9.226;2023-05-10T01:57:27;20.40;65.80
7254;DHT22;4060;49.186;9.226;2023-05-10T01:59:58;20.40;65.70
7254;DHT22;4060;49.186;9.226;2023-05-10T02:02:30;20.40;65.70
7254;DHT22;4060;49.186;9.226;2023-05-10T02:05:05;20.30;65.60
7254;DHT22;4060;49.186;9.226;2023-05-10T02:07:36;20.30;65.60
7254;DHT22;4060;49.186;9.226;2023-05-10T02:10:07;20.30;65.70
7254;DHT22;4060;49.186;9.226;2023-05-10T02:12:40;20.30;65.70
7254;DHT22;4060;49.186;9.226;2023-05-10T02:15:11;20.30;65.80
7254;DHT22;4060;49.186;9.226;2023-05-10T02:17:42;20.30;65.80
7254;DHT22;4060;49.186;9.226;2023-05-10T02:20:14;20.30;65.80
7254;DHT22;4060;49.186;9.226;2023-05-10T02:22:45;20.20;65.70
7254;DHT22;4060;49.186;9.226;2023-05-10T02:25:17;20.20;65.70
7254;DHT22;4060;49.186;9.226;2023-05-10T02:27:47;20.20;65.70
7254;DHT22;4060;49.186;9.226;2023-05-10T02:30:18;20.20;65.70
7254;DHT22;4060;49.186;9.226;2023-05-10T02:32:50;20.20;65.70
7254;DHT22;4060;49.186;9.226;2023-05-10T02:35:21;20.20;65.70
7254;DHT22;4060;49.186;9.226;2023-05-10T02:37:51;20.20;65.70
7254;DHT22;4060;49.186;9.226;2023-05-10T02:40:22;20.10;65.60
7254;DHT22;4060;49.186;9.226;2023-05-10T02:42:54;20.10;65.70
7254;DHT22;4060;49.186;9.226;2023-05-10T02:45:27;20.10;65.70
7254;DHT22;4060;49.186;9.226;2023-05-10T02:47:58;20.10;65.80
7254;DHT22;4060;49.186;9.226;2023-05-10T02:50:31;20.10;65.80
7254;DHT22;4060;49.186;9.226;2023-05-10T02:53:03;20.10;65.80
7254;DHT22;4060;49.186;9.226;2023-05-10T02:55:38;20.00;65.70
7254;DHT22;4060;49.186;9.226;2023-05-10T02:58:08;20.10;65.80
7254;DHT22;4060;49.186;9.226;2023-05-10T03:00:37;20.00;65.70
7254;DHT22;4060;49.186;9.226;2023-05-10T03:03:07;20.00;65.80
7254;DHT22;4060;49.186;9.226;2023-05-10T03:05:38;20.00;65.80
7254;DHT22;4060;49.186;9.226;2023-05-10T03:08:08;20.00;65.80
7254;DHT22;4060;49.186;9.226;2023-05-10T03:10:40;19.90;65.70
7254;DHT22;4060;49.186;9.226;2023-05-10T03:13:21;19.90;65.70
7254;DHT22;4060;49.186;9.226;2023-05-10T03:15:59;19.90;65.80
7254;DHT22;4060;49.186;9.226;2023-05-10T03:18:33;19.90;65.80
7254;DHT22;4060;49.186;9.226;2023-05-10T03:21:11;19.90;65.90
7254;DHT22;4060;49.186;9.226;2023-05-10T03:23:46;19.90;65.90
7254;DHT22;4060;49.186;9.226;2023-05-10T03:26:20;19.90;66.00
7254;DHT22;4060;49.186;9.226;2023-05-10T03:28:51;19.90;66.00
7254;DHT22;4060;49.186;9.226;2023-05-10T03:31:22;19.90;66.80
7254;DHT22;4060;49.186;9.226;2023-05-10T03:33:52;19.80;66.00
7254;DHT22;4060;49.186;9.226;2023-05-10T03:36:23;19.80;65.90
7254;DHT22;4060;49.186;9.226;2023-05-10T03:38:52;19.80;65.90
7254;DHT22;4060;49.186;9.226;2023-05-10T03:41:21;19.80;66.00
7254;DHT22;4060;49.186;9.226;2023-05-10T03:43:52;19.80;66.00
7254;DHT22;4060;49.186;9.226;2023-05-10T03:46:21;19.70;65.90
7254;DHT22;4060;49.186;9.226;2023-05-10T03:48:51;19.70;66.00
7254;DHT22;4060;49.186;9.226;2023-05-10T03:51:22;19.70;66.10
7254;DHT22;4060;49.186;9.226;2023-05-10T03:53:55;19.70;66.10
7254;DHT22;4060;49.186;9.226;2023-05-10T03:56:24;19.70;66.10
7254;DHT22;4060;49.186;9.226;2023-05-10T03:58:54;19.70;66.20
7254;DHT22;4060;49.186;9.226;2023-05-10T04:01:23;19.70;66.20
7254;DHT22;4060;49.186;9.226;2023-05-10T04:03:53;19.70;66.30
7254;DHT22;4060;49.186;9.226;2023-05-10T04:06:25;19.70;66.30
7254;DHT22;4060;49.186;9.226;2023-05-10T04:08:54;19.60;66.30
7254;DHT22;4060;49.186;9.226;2023-05-10T04:11:27;19.60;66.30
7254;DHT22;4060;49.186;9.226;2023-05-10T04:13:56;19.60;66.30
7254;DHT22;4060;49.186;9.226;2023-05-10T04:16:25;19.60;66.40
7254;DHT22;4060;49.186;9.226;2023-05-10T04:18:55;19.60;66.50
7254;DHT22;4060;49.186;9.226;2023-05-10T04:21:26;19.60;66.60
7254;DHT22;4060;49.186;9.226;2023-05-10T04:23:55;19.60;66.70
7254;DHT22;4060;49.186;9.226;2023-05-10T04:26:25;19.50;66.60
7254;DHT22;4060;49.186;9.226;2023-05-10T04:28:54;19.50;66.70
7254;DHT22;4060;49.186;9.226;2023-05-10T04:31:23;19.50;66.70
7254;DHT22;4060;49.186;9.226;2023-05-10T04:33:53;19.50;66.80
7254;DHT22;4060;49.186;9.226;2023-05-10T04:36:22;19.50;67.00
7254;DHT22;4060;49.186;9.226;2023-05-10T04:38:54;19.50;67.00
7254;DHT22;4060;49.186;9.226;2023-05-10T04:41:24;19.50;67.00
7254;DHT22;4060;49.186;9.226;2023-05-10T04:43:53;19.50;67.10
7254;DHT22;4060;49.186;9.226;2023-05-10T04:46:23;19.40;67.10
7254;DHT22;4060;49.186;9.226;2023-05-10T04:48:52;19.40;67.20
7254;DHT22;4060;49.186;9.226;2023-05-10T04:51:22;19.40;67.20
7254;DHT22;4060;49.186;9.226;2023-05-10T04:53:53;19.40;67.30
7254;DHT22;4060;49.186;9.226;2023-05-10T04:56:23;19.40;67.30
7254;DHT22;4060;49.186;9.226;2023-05-10T04:58:52;19.40;67.40
7254;DHT22;4060;49.186;9.226;2023-05-10T05:01:22;19.40;67.50
7254;DHT22;4060;49.186;9.226;2023-05-10T05:03:52;19.40;67.50
7254;DHT22;4060;49.186;9.226;2023-05-10T05:06:21;19.30;67.40
7254;DHT22;4060;49.186;9.226;2023-05-10T05:08:53;19.40;67.70
7254;DHT22;4060;49.186;9.226;2023-05-10T05:11:23;19.30;67.70
7254;DHT22;4060;49.186;9.226;2023-05-10T05:13:52;19.30;67.60
7254;DHT22;4060;49.186;9.226;2023-05-10T05:16:22;19.30;67.70
7254;DHT22;4060;49.186;9.226;2023-05-10T05:18:51;19.30;67.70
7254;DHT22;4060;49.186;9.226;2023-05-10T05:21:21;19.30;67.80
7254;DHT22;4060;49.186;9.226;2023-05-10T05:23:53;19.30;67.90
7254;DHT22;4060;49.186;9.226;2023-05-10T05:26:22;19.30;67.90
7254;DHT22;4060;49.186;9.226;2023-05-10T05:28:52;19.30;67.90
7254;DHT22;4060;49.186;9.226;2023-05-10T05:31:22;19.30;68.00
7254;DHT22;4060;49.186;9.226;2023-05-10T05:33:51;19.30;68.00
7254;DHT22;4060;49.186;9.226;2023-05-10T05:36:22;19.30;68.10
7254;DHT22;4060;49.186;9.226;2023-05-10T05:38:53;19.30;68.20
7254;DHT22;4060;49.186;9.226;2023-05-10T05:41:22;19.20;68.10
7254;DHT22;4060;49.186;9.226;2023-05-10T05:43:53;19.20;68.20
7254;DHT22;4060;49.186;9.226;2023-05-10T05:46:22;19.20;68.30
7254;DHT22;4060;49.186;9.226;2023-05-10T05:48:52;19.20;68.30
7254;DHT22;4060;49.186;9.226;2023-05-10T05:51:20;19.20;68.40
7254;DHT22;4060;49.186;9.226;2023-05-10T05:53:49;19.20;68.40
7254;DHT22;4060;49.186;9.226;2023-05-10T05:56:20;19.20;68.40
7254;DHT22;4060;49.186;9.226;2023-05-10T05:58:51;19.20;68.50
7254;DHT22;4060;49.186;9.226;2023-05-10T06:01:20;19.20;68.60
7254;DHT22;4060;49.186;9.226;2023-05-10T06:03:50;19.20;68.60
7254;DHT22;4060;49.186;9.226;2023-05-10T06:06:19;19.10;68.50
7254;DHT22;4060;49.186;9.226;2023-05-10T06:08:49;19.10;68.60
7254;DHT22;4060;49.186;9.226;2023-05-10T06:11:20;19.20;68.70
7254;DHT22;4060;49.186;9.226;2023-05-10T06:13:50;19.10;68.70
7254;DHT22;4060;49.186;9.226;2023-05-10T06:16:19;19.10;68.70
7254;DHT22;4060;49.186;9.226;2023-05-10T06:18:49;19.10;68.80
7254;DHT22;4060;49.186;9.226;2023-05-10T06:21:19;19.10;68.70
7254;DHT22;4060;49.186;9.226;2023-05-10T06:23:48;19.20;68.90
7254;DHT22;4060;49.186;9.226;2023-05-10T06:26:18;19.10;68.90
7254;DHT22;4060;49.186;9.226;2023-05-10T06:28:49;19.10;68.90
7254;DHT22;4060;49.186;9.226;2023-05-10T06:31:19;19.10;69.10
7254;DHT22;4060;49.186;9.226;2023-05-10T06:33:48;19.10;69.20
7254;DHT22;4060;49.186;9.226;2023-05-10T06:36:17;19.20;69.40
7254;DHT22;4060;49.186;9.226;2023-05-10T06:38:49;19.20;69.40
7254;DHT22;4060;49.186;9.226;2023-05-10T06:41:20;19.20;69.40
7254;DHT22;4060;49.186;9.226;2023-05-10T06:43:52;19.20;69.40
7254;DHT22;4060;49.186;9.226;2023-05-10T06:46:21;19.20;69.60
7254;DHT22;4060;49.186;9.226;2023-05-10T06:48:53;19.10;69.60
7254;DHT22;4060;49.186;9.226;2023-05-10T06:51:23;19.10;69.90
7254;DHT22;4060;49.186;9.226;2023-05-10T06:53:55;19.00;70.00
7254;DHT22;4060;49.186;9.226;2023-05-10T06:56:25;18.90;70.10
7254;DHT22;4060;49.186;9.226;2023-05-10T06:58:56;18.80;70.30
7254;DHT22;4060;49.186;9.226;2023-05-10T07:01:26;18.70;70.30
7254;DHT22;4060;49.186;9.226;2023-05-10T07:03:56;18.60;70.60
7254;DHT22;4060;49.186;9.226;2023-05-10T07:06:26;18.60;70.70
7254;DHT22;4060;49.186;9.226;2023-05-10T07:08:56;18.60;70.90
7254;DHT22;4060;49.186;9.226;2023-05-10T07:11:25;18.60;71.00
7254;DHT22;4060;49.186;9.226;2023-05-10T07:13:57;18.70;71.20
7254;DHT22;4060;49.186;9.226;2023-05-10T07:16:27;18.70;71.10
7254;DHT22;4060;49.186;9.226;2023-05-10T07:18:56;18.70;71.00
7254;DHT22;4060;49.186;9.226;2023-05-10T07:21:27;18.70;71.00
7254;DHT22;4060;49.186;9.226;2023-05-10T07:23:58;18.70;71.00
7254;DHT22;4060;49.186;9.226;2023-05-10T07:26:28;18.70;71.00
7254;DHT22;4060;49.186;9.226;2023-05-10T07:29:04;18.80;71.20
7254;DHT22;4060;49.186;9.226;2023-05-10T07:31:34;18.80;71.20
7254;DHT22;4060;49.186;9.226;2023-05-10T07:34:04;18.80;71.00
7254;DHT22;4060;49.186;9.226;2023-05-10T07:36:33;18.70;70.80
7254;DHT22;4060;49.186;9.226;2023-05-10T07:39:03;18.80;70.80
7254;DHT22;4060;49.186;9.226;2023-05-10T07:41:32;18.80;70.80
7254;DHT22;4060;49.186;9.226;2023-05-10T07:44:04;18.70;70.40
7254;DHT22;4060;49.186;9.226;2023-05-10T07:46:34;18.80;70.30
7254;DHT22;4060;49.186;9.226;2023-05-10T07:49:04;18.70;70.00
7254;DHT22;4060;49.186;9.226;2023-05-10T07:51:33;18.70;70.00
7254;DHT22;4060;49.186;9.226;2023-05-10T07:54:02;18.70;70.00
7254;DHT22;4060;49.186;9.226;2023-05-10T07:56:37;18.70;69.90
7254;DHT22;4060;49.186;9.226;2023-05-10T07:59:16;18.70;69.80
7254;DHT22;4060;49.186;9.226;2023-05-10T08:01:46;18.70;69.90
7254;DHT22;4060;49.186;9.226;2023-05-10T08:04:15;18.70;69.90
7254;DHT22;4060;49.186;9.226;2023-05-10T08:06:45;18.70;69.90
7254;DHT22;4060;49.186;9.226;2023-05-10T08:09:19;18.70;69.90
7254;DHT22;4060;49.186;9.226;2023-05-10T08:11:50;18.70;69.70
7254;DHT22;4060;49.186;9.226;2023-05-10T08:14:23;18.70;69.50
7254;DHT22;4060;49.186;9.226;2023-05-10T08:16:53;18.70;69.40
7254;DHT22;4060;49.186;9.226;2023-05-10T08:19:22;18.60;69.00
7254;DHT22;4060;49.186;9.226;2023-05-10T08:21:53;18.60;69.10
7254;DHT22;4060;49.186;9.226;2023-05-10T08:24:23;18.60;69.20
7254;DHT22;4060;49.186;9.226;2023-05-10T08:26:53;18.60;69.30
7254;DHT22;4060;49.186;9.226;2023-05-10T08:29:25;18.60;69.60
7254;DHT22;4060;49.186;9.226;2023-05-10T08:31:55;18.60;69.70
7254;DHT22;4060;49.186;9.226;2023-05-10T08:34:25;18.60;69.50
7254;DHT22;4060;49.186;9.226;2023-05-10T08:36:54;18.60;69.20
7254;DHT22;4060;49.186;9.226;2023-05-10T08:39:24;18.60;69.10
7254;DHT22;4060;49.186;9.226;2023-05-10T08:42:01;18.50;68.70
7254;DHT22;4060;49.186;9.226;2023-05-10T08:44:32;18.50;68.40
7254;DHT22;4060;49.186;9.226;2023-05-10T08:47:05;18.50;68.40
7254;DHT22;4060;49.186;9.226;2023-05-10T08:49:35;18.50;68.40
7254;DHT22;4060;49.186;9.226;2023-05-10T08:52:06;18.40;68.30
7254;DHT22;4060;49.186;9.226;2023-05-10T08:54:37;18.40;68.50
7254;DHT22;4060;49.186;9.226;2023-05-10T08:57:06;18.40;68.80
7254;DHT22;4060;49.186;9.226;2023-05-10T08:59:38;18.40;68.70
7254;DHT22;4060;49.186;9.226;2023-05-10T09:02:09;18.40;68.70
7254;DHT22;4060;49.186;9.226;2023-05-10T09:04:39;18.40;68.40
7254;DHT22;4060;49.186;9.226;2023-05-10T09:07:09;18.40;68.20
7254;DHT22;4060;49.186;9.226;2023-05-10T09:09:39;18.40;68.10
7254;DHT22;4060;49.186;9.226;2023-05-10T09:12:09;18.50;68.10
7254;DHT22;4060;49.186;9.226;2023-05-10T09:14:43;18.50;68.10
7254;DHT22;4060;49.186;9.226;2023-05-10T09:17:14;18.60;67.90
7254;DHT22;4060;49.186;9.226;2023-05-10T09:19:44;18.60;67.50
7254;DHT22;4060;49.186;9.226;2023-05-10T09:22:13;18.70;67.50
7254;DHT22;4060;49.186;9.226;2023-05-10T09:24:44;18.70;67.30
7254;DHT22;4060;49.186;9.226;2023-05-10T09:27:13;18.70;67.20
7254;DHT22;4060;49.186;9.226;2023-05-10T09:29:45;18.80;67.00
7254;DHT22;4060;49.186;9.226;2023-05-10T09:32:15;18.80;66.80
7254;DHT22;4060;49.186;9.226;2023-05-10T09:34:44;18.80;66.70
7254;DHT22;4060;49.186;9.226;2023-05-10T09:37:14;18.80;66.70
7254;DHT22;4060;49.186;9.226;2023-05-10T09:39:44;18.90;66.90
7254;DHT22;4060;49.186;9.226;2023-05-10T09:42:22;18.90;66.70
7254;DHT22;4060;49.186;9.226;2023-05-10T09:44:53;18.90;66.20
7254;DHT22;4060;49.186;9.226;2023-05-10T09:47:23;19.00;66.00
7254;DHT22;4060;49.186;9.226;2023-05-10T09:49:56;18.90;65.40
7254;DHT22;4060;49.186;9.226;2023-05-10T09:52:31;18.90;65.80
7254;DHT22;4060;49.186;9.226;2023-05-10T09:55:16;18.90;65.00
7254;DHT22;4060;49.186;9.226;2023-05-10T09:57:47;18.90;65.10
7254;DHT22;4060;49.186;9.226;2023-05-10T10:00:20;18.90;65.20
7254;DHT22;4060;49.186;9.226;2023-05-10T10:02:55;18.90;65.20
7254;DHT22;4060;49.186;9.226;2023-05-10T10:05:29;19.00;65.10
7254;DHT22;4060;49.186;9.226;2023-05-10T10:08:05;19.00;65.00
7254;DHT22;4060;49.186;9.226;2023-05-10T10:10:35;19.00;65.10
7254;DHT22;4060;49.186;9.226;2023-05-10T10:13:12;19.10;65.40
7254;DHT22;4060;49.186;9.226;2023-05-10T10:15:43;19.10;65.50
7254;DHT22;4060;49.186;9.226;2023-05-10T10:18:14;19.10;64.80
7254;DHT22;4060;49.186;9.226;2023-05-10T10:20:45;19.10;64.10
7254;DHT22;4060;49.186;9.226;2023-05-10T10:23:15;19.10;63.80
7254;DHT22;4060;49.186;9.226;2023-05-10T10:25:45;19.10;63.90
7254;DHT22;4060;49.186;9.226;2023-05-10T10:28:30;19.10;63.90
7254;DHT22;4060;49.186;9.226;2023-05-10T10:31:23;19.10;63.40
7254;DHT22;4060;49.186;9.226;2023-05-10T10:34:03;19.10;63.50
7254;DHT22;4060;49.186;9.226;2023-05-10T10:36:45;19.10;63.50
7254;DHT22;4060;49.186;9.226;2023-05-10T10:39:15;19.10;63.10
7254;DHT22;4060;49.186;9.226;2023-05-10T10:41:51;19.10;63.70
7254;DHT22;4060;49.186;9.226;2023-05-10T10:44:26;19.10;63.90
7254;DHT22;4060;49.186;9.226;2023-05-10T10:47:05;19.20;63.60
7254;DHT22;4060;49.186;9.226;2023-05-10T10:49:48;19.20;63.50
7254;DHT22;4060;49.186;9.226;2023-05-10T10:52:24;19.20;63.20
7254;DHT22;4060;49.186;9.226;2023-05-10T10:55:01;19.20;63.80
7254;DHT22;4060;49.186;9.226;2023-05-10T10:57:46;19.30;63.50
7254;DHT22;4060;49.186;9.226;2023-05-10T11:00:28;19.40;64.20
7254;DHT22;4060;49.186;9.226;2023-05-10T11:03:06;19.40;64.40
7254;DHT22;4060;49.186;9.226;2023-05-10T11:05:38;19.40;63.70
7254;DHT22;4060;49.186;9.226;2023-05-10T11:08:10;19.40;63.30
7254;DHT22;4060;49.186;9.226;2023-05-10T11:10:49;19.50;64.00
7254;DHT22;4060;49.186;9.226;2023-05-10T11:13:33;19.50;64.10
7254;DHT22;4060;49.186;9.226;2023-05-10T11:16:16;19.50;64.60
7254;DHT22;4060;49.186;9.226;2023-05-10T11:19:02;19.50;64.90
7254;DHT22;4060;49.186;9.226;2023-05-10T11:21:34;19.50;64.80
7254;DHT22;4060;49.186;9.226;2023-05-10T11:24:14;19.50;65.00
7254;DHT22;4060;49.186;9.226;2023-05-10T11:26:44;19.50;65.60
7254;DHT22;4060;49.186;9.226;2023-05-10T11:29:14;19.50;65.80
7254;DHT22;4060;49.186;9.226;2023-05-10T11:31:44;19.60;66.00
7254;DHT22;4060;49.186;9.226;2023-05-10T11:34:32;19.70;66.00
7254;DHT22;4060;49.186;9.226;2023-05-10T11:37:04;19.80;66.10
7254;DHT22;4060;49.186;9.226;2023-05-10T11:39:32;19.80;65.80
7254;DHT22;4060;49.186;9.226;2023-05-10T11:42:02;19.90;65.80
7254;DHT22;4060;49.186;9.226;2023-05-10T11:44:32;19.90;65.50
7254;DHT22;4060;49.186;9.226;2023-05-10T11:47:03;19.90;65.30
7254;DHT22;4060;49.186;9.226;2023-05-10T11:49:34;20.00;65.20
7254;DHT22;4060;49.186;9.226;2023-05-10T11:52:07;20.10;65.10
7254;DHT22;4060;49.186;9.226;2023-05-10T11:54:38;20.10;65.00
7254;DHT22;4060;49.186;9.226;2023-05-10T11:57:15;20.10;64.80
7254;DHT22;4060;49.186;9.226;2023-05-10T11:59:44;20.20;64.80
7254;DHT22;4060;49.186;9.226;2023-05-10T12:02:15;20.20;64.60
7254;DHT22;4060;49.186;9.226;2023-05-10T12:04:46;20.20;64.40
7254;DHT22;4060;49.186;9.226;2023-05-10T12:07:15;20.30;64.40
7254;DHT22;4060;49.186;9.226;2023-05-10T12:09:56;20.30;64.20
7254;DHT22;4060;49.186;9.226;2023-05-10T12:12:37;20.30;64.00
7254;DHT22;4060;49.186;9.226;2023-05-10T12:15:12;20.40;63.90
7254;DHT22;4060;49.186;9.226;2023-05-10T12:17:47;20.30;63.60
7254;DHT22;4060;49.186;9.226;2023-05-10T12:20:22;20.40;63.50
7254;DHT22;4060;49.186;9.226;2023-05-10T12:22:53;20.40;63.40
7254;DHT22;4060;49.186;9.226;2023-05-10T12:25:23;20.40;63.30
7254;DHT22;4060;49.186;9.226;2023-05-10T12:27:54;20.40;63.10
7254;DHT22;4060;49.186;9.226;2023-05-10T12:30:25;20.40;63.10
7254;DHT22;4060;49.186;9.226;2023-05-10T12:33:01;20.40;62.90
7254;DHT22;4060;49.186;9.226;2023-05-10T12:35:38;20.50;63.10
7254;DHT22;4060;49.186;9.226;2023-05-10T12:38:29;20.50;63.10
7254;DHT22;4060;49.186;9.226;2023-05-10T12:41:01;20.50;63.10
7254;DHT22;4060;49.186;9.226;2023-05-10T12:43:31;20.40;62.90
7254;DHT22;4060;49.186;9.226;2023-05-10T12:46:07;20.50;63.10
7254;DHT22;4060;49.186;9.226;2023-05-10T12:48:37;20.40;62.80
7254;DHT22;4060;49.186;9.226;2023-05-10T12:51:13;20.50;62.90
7254;DHT22;4060;49.186;9.226;2023-05-10T12:53:47;20.50;62.70
7254;DHT22;4060;49.186;9.226;2023-05-10T12:56:17;20.50;62.60
7254;DHT22;4060;49.186;9.226;2023-05-10T12:58:48;20.50;62.50
7254;DHT22;4060;49.186;9.226;2023-05-10T13:01:18;20.50;62.50
7254;DHT22;4060;49.186;9.226;2023-05-10T13:03:47;20.50;62.40
7254;DHT22;4060;49.186;9.226;2023-05-10T13:06:19;20.50;62.30
7254;DHT22;4060;49.186;9.226;2023-05-10T13:08:48;20.50;62.30
7254;DHT22;4060;49.186;9.226;2023-05-10T13:11:18;20.50;62.20
7254;DHT22;4060;49.186;9.226;2023-05-10T13:13:49;20.50;62.20
7254;DHT22;4060;49.186;9.226;2023-05-10T13:16:20;20.50;62.00
7254;DHT22;4060;49.186;9.226;2023-05-10T13:18:50;20.60;62.10
7254;DHT22;4060;49.186;9.226;2023-05-10T13:21:23;20.60;62.00
7254;DHT22;4060;49.186;9.226;2023-05-10T13:23:55;20.60;61.90
7254;DHT22;4060;49.186;9.226;2023-05-10T13:26:29;20.60;61.80
7254;DHT22;4060;49.186;9.226;2023-05-10T13:28:58;20.60;61.70
7254;DHT22;4060;49.186;9.226;2023-05-10T13:31:28;20.60;61.60
7254;DHT22;4060;49.186;9.226;2023-05-10T13:33:58;20.60;61.40
7254;DHT22;4060;49.186;9.226;2023-05-10T13:36:31;20.60;61.20
7254;DHT22;4060;49.186;9.226;2023-05-10T13:39:01;20.70;61.30
7254;DHT22;4060;49.186;9.226;2023-05-10T13:41:32;20.70;61.20
7254;DHT22;4060;49.186;9.226;2023-05-10T13:44:07;20.70;61.10
7254;DHT22;4060;49.186;9.226;2023-05-10T13:46:38;20.60;60.80
7254;DHT22;4060;49.186;9.226;2023-05-10T13:49:10;20.70;60.80
7254;DHT22;4060;49.186;9.226;2023-05-10T13:51:46;20.70;60.80
7254;DHT22;4060;49.186;9.226;2023-05-10T13:54:18;20.70;60.70
7254;DHT22;4060;49.186;9.226;2023-05-10T13:56:49;20.70;60.70
7254;DHT22;4060;49.186;9.226;2023-05-10T13:59:21;20.70;60.50
7254;DHT22;4060;49.186;9.226;2023-05-10T14:01:51;20.70;60.40
7254;DHT22;4060;49.186;9.226;2023-05-10T14:04:21;20.80;60.30
7254;DHT22;4060;49.186;9.226;2023-05-10T14:06:53;20.80;60.10
7254;DHT22;4060;49.186;9.226;2023-05-10T14:09:23;20.80;59.90
7254;DHT22;4060;49.186;9.226;2023-05-10T14:11:52;20.80;59.80
7254;DHT22;4060;49.186;9.226;2023-05-10T14:14:23;20.80;59.70
7254;DHT22;4060;49.186;9.226;2023-05-10T14:16:55;20.80;59.60
7254;DHT22;4060;49.186;9.226;2023-05-10T14:19:26;20.80;59.40
7254;DHT22;4060;49.186;9.226;2023-05-10T14:22:03;20.80;59.20
7254;DHT22;4060;49.186;9.226;2023-05-10T14:24:33;20.80;59.00
7254;DHT22;4060;49.186;9.226;2023-05-10T14:27:04;20.80;59.50
7254;DHT22;4060;49.186;9.226;2023-05-10T14:29:36;20.80;58.90
7254;DHT22;4060;49.186;9.226;2023-05-10T14:32:06;20.90;58.90
7254;DHT22;4060;49.186;9.226;2023-05-10T14:34:38;20.90;58.80
7254;DHT22;4060;49.186;9.226;2023-05-10T14:37:12;20.90;58.70
7254;DHT22;4060;49.186;9.226;2023-05-10T14:39:43;20.90;58.60
7254;DHT22;4060;49.186;9.226;2023-05-10T14:42:12;20.90;58.50
7254;DHT22;4060;49.186;9.226;2023-05-10T14:44:42;20.90;58.50
7254;DHT22;4060;49.186;9.226;2023-05-10T14:47:12;20.90;58.40
7254;DHT22;4060;49.186;9.226;2023-05-10T14:49:42;20.90;58.30
7254;DHT22;4060;49.186;9.226;2023-05-10T14:52:13;20.90;58.20
7254;DHT22;4060;49.186;9.226;2023-05-10T14:54:44;20.90;58.10
7254;DHT22;4060;49.186;9.226;2023-05-10T14:57:14;20.90;58.10
7254;DHT22;4060;49.186;9.226;2023-05-10T14:59:48;20.90;58.00
7254;DHT22;4060;49.186;9.226;2023-05-10T15:02:18;20.90;58.00
7254;DHT22;4060;49.186;9.226;2023-05-10T15:04:48;20.90;57.90
7254;DHT22;4060;49.186;9.226;2023-05-10T15:07:20;20.90;57.80
7254;DHT22;4060;49.186;9.226;2023-05-10T15:09:51;20.90;57.70
7254;DHT22;4060;49.186;9.226;2023-05-10T15:12:21;20.90;57.70
7254;DHT22;4060;49.186;9.226;2023-05-10T15:14:51;20.90;57.60
7254;DHT22;4060;49.186;9.226;2023-05-10T15:17:22;20.90;57.60
7254;DHT22;4060;49.186;9.226;2023-05-10T15:19:52;20.90;57.60
7254;DHT22;4060;49.186;9.226;2023-05-10T15:22:27;20.90;57.50
7254;DHT22;4060;49.186;9.226;2023-05-10T15:24:57;20.90;57.50
7254;DHT22;4060;49.186;9.226;2023-05-10T15:27:27;20.90;57.50
7254;DHT22;4060;49.186;9.226;2023-05-10T15:29:57;20.90;57.50
7254;DHT22;4060;49.186;9.226;2023-05-10T15:32:26;20.90;57.50
7254;DHT22;4060;49.186;9.226;2023-05-10T15:34:56;20.90;57.40
7254;DHT22;4060;49.186;9.226;2023-05-10T15:37:31;20.90;57.40
7254;DHT22;4060;49.186;9.226;2023-05-10T15:40:02;20.90;57.50
7254;DHT22;4060;49.186;9.226;2023-05-10T15:42:32;20.90;57.40
7254;DHT22;4060;49.186;9.226;2023-05-10T15:45:03;20.90;57.40
7254;DHT22;4060;49.186;9.226;2023-05-10T15:47:33;20.90;57.40
7254;DHT22;4060;49.186;9.226;2023-05-10T15:50:03;20.90;57.30
7254;DHT22;4060;49.186;9.226;2023-05-10T15:52:34;20.90;57.20
7254;DHT22;4060;49.186;9.226;2023-05-10T15:55:04;20.90;57.20
7254;DHT22;4060;49.186;9.226;2023-05-10T15:57:40;20.90;57.20
7254;DHT22;4060;49.186;9.226;2023-05-10T16:00:12;20.90;57.20
7254;DHT22;4060;49.186;9.226;2023-05-10T16:02:42;20.90;57.10
7254;DHT22;4060;49.186;9.226;2023-05-10T16:05:14;20.90;57.00
7254;DHT22;4060;49.186;9.226;2023-05-10T16:07:46;20.90;57.10
7254;DHT22;4060;49.186;9.226;2023-05-10T16:10:15;20.90;57.10
7254;DHT22;4060;49.186;9.226;2023-05-10T16:12:45;20.90;57.00
7254;DHT22;4060;49.186;9.226;2023-05-10T16:15:14;20.90;57.00
7254;DHT22;4060;49.186;9.226;2023-05-10T16:17:45;20.90;57.00
7254;DHT22;4060;49.186;9.226;2023-05-10T16:20:15;20.90;57.00
7254;DHT22;4060;49.186;9.226;2023-05-10T16:22:47;20.90;57.00
7254;DHT22;4060;49.186;9.226;2023-05-10T16:25:17;20.90;56.90
7254;DHT22;4060;49.186;9.226;2023-05-10T16:27:47;20.90;56.90
7254;DHT22;4060;49.186;9.226;2023-05-10T16:30:17;20.90;56.90
7254;DHT22;4060;49.186;9.226;2023-05-10T16:32:47;20.90;56.90